createdAt,value
2023-02-23T00:05:19.777Z,28.8
2023-02-23T00:11:13.530Z,30.9
2023-02-23T00:17:05.021Z,28.3
2023-02-23T00:22:57.557Z,26.6
2023-02-23T00:28:37.484Z,29.4
2023-02-23T00:34:33.277Z,31.3
2023-02-23T00:40:25.304Z,27.2
2023-02-23T00:46:19.881Z,25.5
2023-02-23T00:52:12.984Z,24.7
2023-02-23T00:58:05.473Z,24.1
2023-02-23T01:03:58.696Z,23.8
2023-02-23T01:09:51.574Z,29
2023-02-23T01:15:44.545Z,31
2023-02-23T01:21:38.650Z,27.9
2023-02-23T01:27:16.393Z,26.3
2023-02-23T01:33:11.459Z,24.8
2023-02-23T01:39:05.054Z,24.3
2023-02-23T01:44:56.936Z,23.8
2023-02-23T01:50:34.751Z,28.1
2023-02-23T01:56:28.430Z,30.3
2023-02-23T02:02:05.472Z,29.6
2023-02-23T02:07:58.345Z,26.8
2023-02-23T02:13:52.661Z,25.2
2023-02-23T02:19:29.165Z,24.6
2023-02-23T02:25:07.367Z,23.9
2023-02-23T02:31:01.269Z,25.6
2023-02-23T02:36:54.746Z,27.9
2023-02-23T02:42:47.615Z,23.6
2023-02-23T02:48:26.272Z,29.1
2023-02-23T02:54:03.734Z,31.1
2023-02-23T02:59:40.696Z,27.8
2023-02-23T03:05:19.137Z,26.6
2023-02-23T03:10:39.925Z,24.8
2023-02-23T03:16:17.856Z,24.4
2023-02-23T03:21:56.301Z,23.8
2023-02-23T03:27:33.573Z,27.5
2023-02-23T03:32:54.689Z,29.9
2023-02-23T03:38:01.568Z,31.3
2023-02-23T03:43:39.552Z,27.4
2023-02-23T03:49:17.461Z,25.9
2023-02-23T03:55:11.977Z,24.8
2023-02-23T04:00:49.856Z,24.1
2023-02-23T04:06:26.327Z,23.7
2023-02-23T04:11:49.666Z,28.2
2023-02-23T04:17:11.270Z,30.3
2023-02-23T04:22:47.832Z,29.9
2023-02-23T04:28:10.396Z,26.9
2023-02-23T04:34:04.479Z,28.1
2023-02-23T04:39:56.294Z,30.5
2023-02-23T04:45:18.892Z,28.1
2023-02-23T04:50:56.824Z,26.6
2023-02-23T04:56:36.796Z,25
2023-02-23T05:02:31.109Z,24.6
2023-02-23T05:08:25.189Z,23.9
2023-02-23T05:14:17.035Z,27.1
2023-02-23T05:20:11.238Z,28.4
2023-02-23T05:26:04.277Z,22.8
2023-02-23T05:31:57.617Z,28.8
2023-02-23T05:37:51.941Z,31
2023-02-23T05:43:44.397Z,27.9
2023-02-23T05:49:21.971Z,26.3
2023-02-23T05:55:00.349Z,24.8
2023-02-23T06:00:37.035Z,24.3
2023-02-23T06:06:29.730Z,23.8
2023-02-23T06:12:23.800Z,27.8
2023-02-23T06:18:16.037Z,30.3
2023-02-23T06:24:07.745Z,29.9
2023-02-23T06:30:03.197Z,27
2023-02-23T06:35:56.720Z,25.2
2023-02-23T06:41:48.109Z,24.6
2023-02-23T06:47:41.440Z,23.9
2023-02-23T06:53:33.869Z,26
2023-02-23T06:59:13.357Z,29.7
2023-02-23T07:05:07.455Z,31.3
2023-02-23T07:11:00.226Z,27.2
2023-02-23T07:16:57.019Z,28
2023-02-23T07:22:50.451Z,31.1
2023-02-23T07:28:42.887Z,27.8
2023-02-23T07:34:36.804Z,26.3
2023-02-23T07:40:31.335Z,24.8
2023-02-23T07:46:24.279Z,24.2
2023-02-23T07:52:17.257Z,23.8
2023-02-23T07:58:12.636Z,28.4
2023-02-23T08:04:05.518Z,31.2
2023-02-23T08:09:57.383Z,27.9
2023-02-23T08:15:52.898Z,26.5
2023-02-23T08:21:45.229Z,28.8
2023-02-23T08:27:49.513Z,31.7
2023-02-23T08:33:44.918Z,27.2
2023-02-23T08:39:37.698Z,26.3
2023-02-23T08:45:29.975Z,29.6
2023-02-23T08:51:24.020Z,30.3
2023-02-23T08:57:00.414Z,26.9
2023-02-23T09:02:51.757Z,26.1
2023-02-23T09:08:45.897Z,30.2
2023-02-23T09:14:38.587Z,29.4
2023-02-23T09:20:31.098Z,26.6
2023-02-23T09:26:09.476Z,25.9
2023-02-23T09:31:50.058Z,30.7
2023-02-23T09:37:26.969Z,28.2
2023-02-23T09:43:32.628Z,26.3
2023-02-23T09:49:09.472Z,25.6
2023-02-23T09:55:02.883Z,31.6
2023-02-23T10:00:56.906Z,27.6
2023-02-23T10:06:36.123Z,26.2
2023-02-23T10:12:31.454Z,26.9
2023-02-23T10:18:11.155Z,32.1
2023-02-23T10:24:20.560Z,27.1
2023-02-23T10:30:12.635Z,26
2023-02-23T10:35:53.988Z,28.1
2023-02-23T10:41:50.068Z,31.3
2023-02-23T10:47:34.257Z,26.6
2023-02-23T10:53:15.761Z,25.6
2023-02-23T10:59:10.637Z,27.4
2023-02-23T11:05:28.794Z,31.2
2023-02-23T11:11:39.424Z,26.4
2023-02-23T11:17:45.089Z,25.7
2023-02-23T11:23:46.738Z,25.4
2023-02-23T11:29:41.305Z,25.3
2023-02-23T11:35:34.165Z,25
2023-02-23T11:41:26.741Z,24.8
2023-02-23T11:47:25.245Z,24.5
2023-02-23T11:53:17.613Z,24.3
2023-02-23T11:58:54.433Z,24
2023-02-23T12:04:49.736Z,23.8
2023-02-23T12:10:27.196Z,23.6
2023-02-23T12:16:21.032Z,23.4
2023-02-23T12:22:14.031Z,23.3
2023-02-23T12:28:18.061Z,23.1
2023-02-23T12:34:11.541Z,22.9
2023-02-23T12:40:05.227Z,22.8
2023-02-23T12:45:57.594Z,22.6
2023-02-23T12:51:35.730Z,22.4
2023-02-23T12:57:28.942Z,22.3
2023-02-23T13:03:23.860Z,22.2
2023-02-23T13:09:23.608Z,22.1
2023-02-23T13:15:18.049Z,21.9
2023-02-23T13:20:55.070Z,21.9
2023-02-23T13:26:32.324Z,21.8
2023-02-23T13:32:14.491Z,21.7
2023-02-23T13:38:14.539Z,21.6
2023-02-23T13:44:19.806Z,21.5
2023-02-23T13:50:20.693Z,21.4
2023-02-23T13:56:22.338Z,21.3
2023-02-23T14:02:16.417Z,21.3
2023-02-23T14:13:34.378Z,21.1
2023-02-23T14:19:29.483Z,21
2023-02-23T14:25:33.370Z,20.9
2023-02-23T14:31:43.416Z,20.9
2023-02-23T14:37:31.795Z,20.8
2023-02-23T14:43:34.455Z,20.8
2023-02-23T14:49:40.439Z,20.7
2023-02-23T14:55:29.953Z,20.6
2023-02-23T15:01:32.633Z,20.6
2023-02-23T15:07:39.932Z,20.5
2023-02-23T15:13:32.356Z,20.5
2023-02-23T15:19:33.611Z,20.4
2023-02-23T15:25:36.453Z,20.4
2023-02-23T15:31:43.781Z,20.4
2023-02-23T15:37:38.650Z,20.4
2023-02-23T15:44:03.722Z,20.3
2023-02-23T15:50:04.891Z,20.3
2023-02-23T15:55:56.926Z,20.3
2023-02-23T16:01:58.412Z,20.3
2023-02-23T16:07:58.964Z,20.2
2023-02-23T16:13:53.525Z,20.2
2023-02-23T16:19:56.092Z,20.2
2023-02-23T16:25:57.003Z,20.2
2023-02-23T16:31:19.125Z,20.2
2023-02-23T16:36:57.571Z,20.1
2023-02-23T16:42:49.734Z,20.1
2023-02-23T16:48:52.254Z,20.1
2023-02-23T16:54:49.811Z,20.1
2023-02-23T17:00:43.421Z,20.1
2023-02-23T17:06:33.402Z,20
2023-02-23T17:12:33.727Z,20
2023-02-23T17:18:26.480Z,20
2023-02-23T17:24:20.159Z,19.9
2023-02-23T17:30:13.737Z,19.9
2023-02-23T17:36:10.808Z,19.9
2023-02-23T17:42:03.891Z,19.9
2023-02-23T17:47:58.215Z,19.9
2023-02-23T17:53:51.043Z,19.9
2023-02-23T17:59:45.966Z,19.9
2023-02-23T18:05:40.737Z,19.9
2023-02-23T18:11:17.477Z,19.9
2023-02-23T18:17:11.413Z,19.9
2023-02-23T18:23:06.634Z,19.9
2023-02-23T18:28:42.975Z,19.8
2023-02-23T18:34:38.216Z,19.8
2023-02-23T18:40:32.302Z,19.8
2023-02-23T18:46:08.562Z,19.8
2023-02-23T18:51:47.237Z,19.8
2023-02-23T18:57:42.016Z,19.7
2023-02-23T19:03:35.860Z,19.8
2023-02-23T19:09:15.175Z,19.7
2023-02-23T19:15:22.264Z,19.7
2023-02-23T19:21:15.289Z,19.7
2023-02-23T19:26:53.223Z,19.7
2023-02-23T19:32:48.179Z,19.7
2023-02-23T19:38:40.825Z,19.7
2023-02-23T19:44:33.820Z,19.7
2023-02-23T19:50:26.994Z,19.6
2023-02-23T19:56:18.364Z,19.6
2023-02-23T20:02:11.670Z,19.6
2023-02-23T20:08:05.657Z,19.6
2023-02-23T20:13:57.959Z,19.6
2023-02-23T20:19:51.378Z,19.6
2023-02-23T20:25:43.984Z,19.6
2023-02-23T20:31:37.832Z,19.6
2023-02-23T20:37:31.988Z,19.6
2023-02-23T20:43:26.078Z,22.3
2023-02-23T20:49:18.135Z,27.6
2023-02-23T20:55:12.381Z,30
2023-02-23T21:00:34.948Z,31.3
2023-02-23T21:06:29.319Z,32.3
2023-02-23T21:12:22.734Z,28.8
2023-02-23T21:18:00.248Z,31.2
2023-02-23T21:23:55.221Z,30.1
2023-02-23T21:29:32.722Z,30.3
2023-02-23T21:35:14.879Z,31.2
2023-02-23T21:41:07.790Z,26.4
2023-02-23T21:47:01.071Z,30.9
2023-02-23T21:52:54.436Z,29.2
2023-02-23T21:58:53.973Z,26
2023-02-23T22:04:47.861Z,30.8
2023-02-23T22:10:24.742Z,28.8
2023-02-23T22:16:16.732Z,26.1
2023-02-23T22:22:11.376Z,29.5
2023-02-23T22:28:03.884Z,30.9
2023-02-23T22:33:57.973Z,26.6
2023-02-23T22:39:34.559Z,26.1
2023-02-23T22:45:27.931Z,30.8
2023-02-23T22:57:42.493Z,26
2023-02-23T23:03:35.376Z,28.7
2023-02-23T23:09:29.064Z,31.7
2023-02-23T23:15:23.531Z,26.8
2023-02-23T23:21:35.369Z,25.8
2023-02-23T23:27:27.312Z,29.7
2023-02-23T23:33:21.999Z,29.9
2023-02-23T23:39:15.019Z,26.4
2023-02-23T23:45:07.107Z,25.8
2023-02-23T23:51:00.041Z,29.9
2023-02-23T23:56:54.022Z,29.3
